sensor_id;sensor_type;location;lat;lon;timestamp;pressure;altitude;pressure_sealevel;temperature;humidity
73860;BME280;62197;51.632;13.700;2023-09-12T00:01:22;99898.91;;;15.07;100.00
73860;BME280;62197;51.632;13.700;2023-09-12T00:03:48;99896.91;;;15.08;100.00
73860;BME280;62197;51.632;13.700;2023-09-12T00:06:13;99894.44;;;15.06;100.00
73860;BME280;62197;51.632;13.700;2023-09-12T00:08:38;99902.78;;;15.06;100.00
73860;BME280;62197;51.632;13.700;2023-09-12T00:11:06;99897.75;;;15.62;100.00
73860;BME280;62197;51.632;13.700;2023-09-12T00:13:38;99899.25;;;15.88;100.00
73860;BME280;62197;51.632;13.700;2023-09-12T00:16:04;99893.16;;;15.86;100.00
73860;BME280;62197;51.632;13.700;2023-09-12T00:18:30;99892.84;;;15.54;100.00
73860;BME280;62197;51.632;13.700;2023-09-12T00:20:56;99889.63;;;15.27;100.00
73860;BME280;62197;51.632;13.700;2023-09-12T00:23:22;99893.03;;;15.09;100.00
73860;BME280;62197;51.632;13.700;2023-09-12T00:25:49;99891.03;;;15.24;100.00
73860;BME280;62197;51.632;13.700;2023-09-12T00:28:15;99898.50;;;15.29;100.00
73860;BME280;62197;51.632;13.700;2023-09-12T00:30:40;99883.97;;;15.37;100.00
73860;BME280;62197;51.632;13.700;2023-09-12T00:33:05;99893.63;;;15.60;100.00
73860;BME280;62197;51.632;13.700;2023-09-12T00:35:31;99892.13;;;15.72;100.00
73860;BME280;62197;51.632;13.700;2023-09-12T00:37:56;99884.28;;;15.41;100.00
73860;BME280;62197;51.632;13.700;2023-09-12T00:40:22;99885.06;;;15.51;100.00
73860;BME280;62197;51.632;13.700;2023-09-12T00:42:47;99878.34;;;16.24;100.00
73860;BME280;62197;51.632;13.700;2023-09-12T00:45:12;99862.41;;;16.01;100.00
73860;BME280;62197;51.632;13.700;2023-09-12T00:47:38;99866.75;;;15.40;100.00
73860;BME280;62197;51.632;13.700;2023-09-12T00:50:04;99880.53;;;15.11;100.00
73860;BME280;62197;51.632;13.700;2023-09-12T00:52:31;99882.31;;;14.82;100.00
73860;BME280;62197;51.632;13.700;2023-09-12T00:54:58;99876.50;;;14.79;100.00
73860;BME280;62197;51.632;13.700;2023-09-12T00:57:23;99879.28;;;14.74;100.00
73860;BME280;62197;51.632;13.700;2023-09-12T00:59:49;99887.28;;;15.93;100.00
73860;BME280;62197;51.632;13.700;2023-09-12T01:02:14;99882.50;;;15.98;100.00
73860;BME280;62197;51.632;13.700;2023-09-12T01:04:43;99883.06;;;15.57;100.00
73860;BME280;62197;51.632;13.700;2023-09-12T01:07:09;99885.25;;;15.11;100.00
73860;BME280;62197;51.632;13.700;2023-09-12T01:09:34;99885.91;;;14.83;100.00
73860;BME280;62197;51.632;13.700;2023-09-12T01:12:00;99895.63;;;15.54;100.00
73860;BME280;62197;51.632;13.700;2023-09-12T01:14:28;99880.34;;;16.19;100.00
73860;BME280;62197;51.632;13.700;2023-09-12T01:16:53;99885.03;;;15.56;100.00
73860;BME280;62197;51.632;13.700;2023-09-12T01:19:19;99894.16;;;15.08;100.00
73860;BME280;62197;51.632;13.700;2023-09-12T01:22:13;99897.03;;;14.88;100.00
73860;BME280;62197;51.632;13.700;2023-09-12T01:25:00;99905.47;;;14.42;100.00
73860;BME280;62197;51.632;13.700;2023-09-12T01:27:37;99908.53;;;14.16;100.00
73860;BME280;62197;51.632;13.700;2023-09-12T01:30:07;99905.41;;;14.73;100.00
73860;BME280;62197;51.632;13.700;2023-09-12T01:32:34;99908.00;;;15.18;100.00
73860;BME280;62197;51.632;13.700;2023-09-12T01:35:00;99909.44;;;15.10;100.00
73860;BME280;62197;51.632;13.700;2023-09-12T01:37:28;99899.00;;;14.77;100.00
73860;BME280;62197;51.632;13.700;2023-09-12T01:39:55;99894.53;;;15.45;100.00
73860;BME280;62197;51.632;13.700;2023-09-12T01:42:21;99898.13;;;15.89;100.00
73860;BME280;62197;51.632;13.700;2023-09-12T01:44:49;99889.41;;;16.01;100.00
73860;BME280;62197;51.632;13.700;2023-09-12T01:47:16;99890.97;;;15.78;100.00
73860;BME280;62197;51.632;13.700;2023-09-12T01:49:47;99884.88;;;15.32;100.00
73860;BME280;62197;51.632;13.700;2023-09-12T01:52:13;99889.63;;;15.27;100.00
73860;BME280;62197;51.632;13.700;2023-09-12T01:54:40;99891.47;;;14.88;100.00
73860;BME280;62197;51.632;13.700;2023-09-12T01:57:06;99895.44;;;14.57;100.00
73860;BME280;62197;51.632;13.700;2023-09-12T01:59:33;99897.97;;;14.23;100.00
73860;BME280;62197;51.632;13.700;2023-09-12T02:01:58;99909.63;;;14.10;100.00
73860;BME280;62197;51.632;13.700;2023-09-12T02:04:24;99900.19;;;14.06;100.00
73860;BME280;62197;51.632;13.700;2023-09-12T02:06:49;99912.34;;;14.80;100.00
73860;BME280;62197;51.632;13.700;2023-09-12T02:09:14;99906.03;;;14.39;100.00
73860;BME280;62197;51.632;13.700;2023-09-12T02:11:40;99897.13;;;14.07;100.00
73860;BME280;62197;51.632;13.700;2023-09-12T02:14:05;99903.81;;;14.21;100.00
73860;BME280;62197;51.632;13.700;2023-09-12T02:16:31;99914.66;;;14.28;100.00
73860;BME280;62197;51.632;13.700;2023-09-12T02:18:56;99903.00;;;14.31;100.00
73860;BME280;62197;51.632;13.700;2023-09-12T02:21:22;99911.59;;;14.29;100.00
73860;BME280;62197;51.632;13.700;2023-09-12T02:23:47;99907.69;;;14.25;100.00
73860;BME280;62197;51.632;13.700;2023-09-12T02:26:12;99906.31;;;14.08;100.00
73860;BME280;62197;51.632;13.700;2023-09-12T02:28:38;99908.25;;;14.17;100.00
73860;BME280;62197;51.632;13.700;2023-09-12T02:31:03;99907.19;;;14.28;100.00
73860;BME280;62197;51.632;13.700;2023-09-12T02:33:28;99903.25;;;14.14;100.00
73860;BME280;62197;51.632;13.700;2023-09-12T02:35:54;99891.88;;;14.16;100.00
73860;BME280;62197;51.632;13.700;2023-09-12T02:38:19;99889.94;;;13.96;100.00
73860;BME280;62197;51.632;13.700;2023-09-12T02:40:44;99895.50;;;14.01;100.00
73860;BME280;62197;51.632;13.700;2023-09-12T02:43:10;99894.94;;;14.29;100.00
73860;BME280;62197;51.632;13.700;2023-09-12T02:45:35;99893.25;;;14.48;100.00
73860;BME280;62197;51.632;13.700;2023-09-12T02:48:00;99887.56;;;14.89;100.00
73860;BME280;62197;51.632;13.700;2023-09-12T02:50:26;99886.53;;;14.70;100.00
73860;BME280;62197;51.632;13.700;2023-09-12T02:52:51;99892.44;;;14.43;100.00
73860;BME280;62197;51.632;13.700;2023-09-12T02:55:16;99889.94;;;14.26;100.00
73860;BME280;62197;51.632;13.700;2023-09-12T02:57:42;99888.84;;;14.02;100.00
73860;BME280;62197;51.632;13.700;2023-09-12T03:00:07;99884.69;;;13.80;100.00
73860;BME280;62197;51.632;13.700;2023-09-12T03:02:34;99896.31;;;13.77;100.00
73860;BME280;62197;51.632;13.700;2023-09-12T03:04:59;99903.28;;;13.99;100.00
73860;BME280;62197;51.632;13.700;2023-09-12T03:07:26;99896.03;;;13.63;100.00
73860;BME280;62197;51.632;13.700;2023-09-12T03:09:51;99899.31;;;13.35;100.00
73860;BME280;62197;51.632;13.700;2023-09-12T03:12:17;99895.91;;;13.13;100.00
73860;BME280;62197;51.632;13.700;2023-09-12T03:14:42;99901.91;;;13.00;100.00
73860;BME280;62197;51.632;13.700;2023-09-12T03:17:08;99905.50;;;12.95;100.00
73860;BME280;62197;51.632;13.700;2023-09-12T03:19:33;99901.78;;;13.36;100.00
73860;BME280;62197;51.632;13.700;2023-09-12T03:21:58;99915.34;;;13.28;100.00
73860;BME280;62197;51.632;13.700;2023-09-12T03:24:24;99905.84;;;13.09;100.00
73860;BME280;62197;51.632;13.700;2023-09-12T03:26:50;99908.66;;;13.14;100.00
73860;BME280;62197;51.632;13.700;2023-09-12T03:29:16;99906.91;;;13.03;100.00
73860;BME280;62197;51.632;13.700;2023-09-12T03:31:41;99914.16;;;13.09;100.00
73860;BME280;62197;51.632;13.700;2023-09-12T03:34:06;99912.63;;;13.43;100.00
73860;BME280;62197;51.632;13.700;2023-09-12T03:36:32;99918.16;;;13.53;100.00
73860;BME280;62197;51.632;13.700;2023-09-12T03:38:57;99914.59;;;13.52;100.00
73860;BME280;62197;51.632;13.700;2023-09-12T03:41:23;99911.78;;;13.42;100.00
73860;BME280;62197;51.632;13.700;2023-09-12T03:43:52;99911.56;;;13.69;100.00
73860;BME280;62197;51.632;13.700;2023-09-12T03:46:18;99906.59;;;14.16;100.00
73860;BME280;62197;51.632;13.700;2023-09-12T03:48:43;99898.25;;;14.16;100.00
73860;BME280;62197;51.632;13.700;2023-09-12T03:51:08;99894.94;;;14.04;100.00
73860;BME280;62197;51.632;13.700;2023-09-12T03:53:34;99903.81;;;13.86;100.00
73860;BME280;62197;51.632;13.700;2023-09-12T03:55:59;99904.63;;;13.67;100.00
73860;BME280;62197;51.632;13.700;2023-09-12T03:58:25;99908.25;;;14.37;100.00
73860;BME280;62197;51.632;13.700;2023-09-12T04:00:50;99899.81;;;14.88;100.00
73860;BME280;62197;51.632;13.700;2023-09-12T04:03:15;99892.06;;;14.70;100.00
73860;BME280;62197;51.632;13.700;2023-09-12T04:05:41;99890.75;;;14.47;100.00
73860;BME280;62197;51.632;13.700;2023-09-12T04:08:07;99891.31;;;14.14;100.00
73860;BME280;62197;51.632;13.700;2023-09-12T04:10:32;99889.66;;;14.13;100.00
73860;BME280;62197;51.632;13.700;2023-09-12T04:12:57;99889.41;;;14.29;100.00
73860;BME280;62197;51.632;13.700;2023-09-12T04:15:23;99896.03;;;14.38;100.00
73860;BME280;62197;51.632;13.700;2023-09-12T04:17:48;99894.38;;;14.22;100.00
73860;BME280;62197;51.632;13.700;2023-09-12T04:20:13;99898.25;;;13.81;100.00
73860;BME280;62197;51.632;13.700;2023-09-12T04:22:39;99905.72;;;13.66;100.00
73860;BME280;62197;51.632;13.700;2023-09-12T04:25:06;99905.47;;;13.62;100.00
73860;BME280;62197;51.632;13.700;2023-09-12T04:27:31;99908.81;;;13.74;100.00
73860;BME280;62197;51.632;13.700;2023-09-12T04:29:56;99908.25;;;13.77;100.00
73860;BME280;62197;51.632;13.700;2023-09-12T04:32:22;99908.25;;;13.77;100.00
73860;BME280;62197;51.632;13.700;2023-09-12T04:34:49;99904.38;;;13.98;100.00
73860;BME280;62197;51.632;13.700;2023-09-12T04:37:14;99906.59;;;14.06;100.00
73860;BME280;62197;51.632;13.700;2023-09-12T04:39:39;99910.47;;;13.95;100.00
73860;BME280;62197;51.632;13.700;2023-09-12T04:42:05;99907.69;;;13.75;100.00
73860;BME280;62197;51.632;13.700;2023-09-12T04:44:34;99914.88;;;13.71;100.00
73860;BME280;62197;51.632;13.700;2023-09-12T04:47:01;99906.56;;;13.51;100.00
73860;BME280;62197;51.632;13.700;2023-09-12T04:49:27;99908.75;;;13.59;100.00
73860;BME280;62197;51.632;13.700;2023-09-12T04:51:52;99903.22;;;13.54;100.00
73860;BME280;62197;51.632;13.700;2023-09-12T04:54:17;99906.56;;;13.66;100.00
73860;BME280;62197;51.632;13.700;2023-09-12T04:56:43;99906.03;;;14.14;100.00
73860;BME280;62197;51.632;13.700;2023-09-12T04:59:08;99914.31;;;14.65;100.00
73860;BME280;62197;51.632;13.700;2023-09-12T05:01:33;99897.47;;;15.15;100.00
73860;BME280;62197;51.632;13.700;2023-09-12T05:03:59;99892.13;;;15.28;100.00
73860;BME280;62197;51.632;13.700;2023-09-12T05:06:24;99884.81;;;15.48;100.00
73860;BME280;62197;51.632;13.700;2023-09-12T05:08:49;99879.06;;;15.29;100.00
73860;BME280;62197;51.632;13.700;2023-09-12T05:11:15;99880.66;;;15.35;100.00
73860;BME280;62197;51.632;13.700;2023-09-12T05:13:40;99886.19;;;15.45;100.00
73860;BME280;62197;51.632;13.700;2023-09-12T05:16:06;99891.16;;;15.53;100.00
73860;BME280;62197;51.632;13.700;2023-09-12T05:18:31;99891.69;;;15.55;100.00
73860;BME280;62197;51.632;13.700;2023-09-12T05:20:57;99893.69;;;15.50;100.00
73860;BME280;62197;51.632;13.700;2023-09-12T05:23:22;99895.22;;;15.71;100.00
73860;BME280;62197;51.632;13.700;2023-09-12T05:25:47;99886.06;;;15.65;100.00
73860;BME280;62197;51.632;13.700;2023-09-12T05:28:13;99884.13;;;15.66;100.00
73860;BME280;62197;51.632;13.700;2023-09-12T05:30:43;99879.25;;;15.37;100.00
73860;BME280;62197;51.632;13.700;2023-09-12T05:33:09;99894.63;;;15.74;100.00
73860;BME280;62197;51.632;13.700;2023-09-12T05:35:34;99889.25;;;16.21;100.00
73860;BME280;62197;51.632;13.700;2023-09-12T05:37:59;99891.03;;;16.36;100.00
73860;BME280;62197;51.632;13.700;2023-09-12T05:40:25;99891.53;;;16.14;100.00
73860;BME280;62197;51.632;13.700;2023-09-12T05:42:50;99893.19;;;16.44;100.00
73860;BME280;62197;51.632;13.700;2023-09-12T05:45:15;99893.44;;;16.18;100.00
73860;BME280;62197;51.632;13.700;2023-09-12T05:47:41;99897.47;;;16.02;100.00
73860;BME280;62197;51.632;13.700;2023-09-12T05:50:06;99899.94;;;15.70;100.00
73860;BME280;62197;51.632;13.700;2023-09-12T05:52:32;99905.56;;;15.60;100.00
73860;BME280;62197;51.632;13.700;2023-09-12T05:54:58;99903.41;;;15.52;100.00
73860;BME280;62197;51.632;13.700;2023-09-12T05:57:23;99913.66;;;15.62;100.00
73860;BME280;62197;51.632;13.700;2023-09-12T05:59:49;99911.53;;;15.44;100.00
73860;BME280;62197;51.632;13.700;2023-09-12T06:02:15;99919.88;;;15.38;100.00
73860;BME280;62197;51.632;13.700;2023-09-12T06:04:40;99919.13;;;15.72;100.00
73860;BME280;62197;51.632;13.700;2023-09-12T06:07:06;99922.56;;;15.97;100.00
73860;BME280;62197;51.632;13.700;2023-09-12T06:09:31;99915.28;;;16.06;100.00
73860;BME280;62197;51.632;13.700;2023-09-12T06:11:56;99924.97;;;16.09;100.00
73860;BME280;62197;51.632;13.700;2023-09-12T06:14:22;99921.88;;;16.10;100.00
73860;BME280;62197;51.632;13.700;2023-09-12T06:16:47;99924.44;;;16.07;100.00
73860;BME280;62197;51.632;13.700;2023-09-12T06:19:13;99929.44;;;16.05;100.00
73860;BME280;62197;51.632;13.700;2023-09-12T06:21:40;99934.16;;;16.09;100.00
73860;BME280;62197;51.632;13.700;2023-09-12T06:24:13;99935.59;;;16.36;100.00
73860;BME280;62197;51.632;13.700;2023-09-12T06:26:39;99930.53;;;16.43;100.00
73860;BME280;62197;51.632;13.700;2023-09-12T06:29:04;99928.75;;;16.57;100.00
73860;BME280;62197;51.632;13.700;2023-09-12T06:31:30;99928.00;;;16.75;100.00
73860;BME280;62197;51.632;13.700;2023-09-12T06:33:55;99924.47;;;16.93;100.00
73860;BME280;62197;51.632;13.700;2023-09-12T06:36:22;99921.13;;;17.14;100.00
73860;BME280;62197;51.632;13.700;2023-09-12T06:38:49;99931.47;;;17.33;100.00
73860;BME280;62197;51.632;13.700;2023-09-12T06:41:14;99926.84;;;17.47;100.00
73860;BME280;62197;51.632;13.700;2023-09-12T06:43:40;99927.03;;;17.55;100.00
73860;BME280;62197;51.632;13.700;2023-09-12T06:46:05;99934.13;;;17.66;100.00
73860;BME280;62197;51.632;13.700;2023-09-12T06:48:30;99920.78;;;17.82;100.00
73860;BME280;62197;51.632;13.700;2023-09-12T06:50:56;99926.28;;;18.06;100.00
73860;BME280;62197;51.632;13.700;2023-09-12T06:53:21;99919.53;;;18.25;100.00
73860;BME280;62197;51.632;13.700;2023-09-12T06:55:46;99927.88;;;18.44;100.00
73860;BME280;62197;51.632;13.700;2023-09-12T06:58:12;99933.13;;;18.64;100.00
73860;BME280;62197;51.632;13.700;2023-09-12T07:00:37;99927.94;;;18.71;100.00
73860;BME280;62197;51.632;13.700;2023-09-12T07:03:03;99930.44;;;18.86;100.00
73860;BME280;62197;51.632;13.700;2023-09-12T07:05:28;99927.88;;;19.03;100.00
73860;BME280;62197;51.632;13.700;2023-09-12T07:07:54;99923.63;;;19.19;100.00
73860;BME280;62197;51.632;13.700;2023-09-12T07:10:19;99922.47;;;19.47;100.00
73860;BME280;62197;51.632;13.700;2023-09-12T07:12:44;99923.28;;;19.61;100.00
73860;BME280;62197;51.632;13.700;2023-09-12T07:15:10;99927.50;;;19.72;100.00
73860;BME280;62197;51.632;13.700;2023-09-12T07:17:35;99929.16;;;19.87;100.00
73860;BME280;62197;51.632;13.700;2023-09-12T07:20:01;99920.56;;;20.06;100.00
73860;BME280;62197;51.632;13.700;2023-09-12T07:22:26;99916.16;;;20.27;100.00
73860;BME280;62197;51.632;13.700;2023-09-12T07:24:51;99923.28;;;20.33;100.00
73860;BME280;62197;51.632;13.700;2023-09-12T07:27:17;99916.66;;;20.51;100.00
73860;BME280;62197;51.632;13.700;2023-09-12T07:29:42;99914.72;;;20.60;100.00
73860;BME280;62197;51.632;13.700;2023-09-12T07:32:07;99921.59;;;20.76;100.00
73860;BME280;62197;51.632;13.700;2023-09-12T07:34:33;99920.41;;;20.77;100.00
73860;BME280;62197;51.632;13.700;2023-09-12T07:36:58;99922.16;;;20.95;100.00
73860;BME280;62197;51.632;13.700;2023-09-12T07:39:23;99928.06;;;21.16;100.00
73860;BME280;62197;51.632;13.700;2023-09-12T07:41:49;99921.03;;;21.35;100.00
73860;BME280;62197;51.632;13.700;2023-09-12T07:44:14;99928.81;;;21.47;100.00
73860;BME280;62197;51.632;13.700;2023-09-12T07:46:41;99931.50;;;21.61;100.00
73860;BME280;62197;51.632;13.700;2023-09-12T07:49:07;99930.56;;;21.82;100.00
73860;BME280;62197;51.632;13.700;2023-09-12T07:51:34;99930.75;;;22.03;100.00
73860;BME280;62197;51.632;13.700;2023-09-12T07:54:00;99928.09;;;22.15;100.00
73860;BME280;62197;51.632;13.700;2023-09-12T07:56:26;99934.25;;;22.25;100.00
73860;BME280;62197;51.632;13.700;2023-09-12T07:58:51;99925.13;;;22.37;100.00
73860;BME280;62197;51.632;13.700;2023-09-12T08:01:16;99935.69;;;22.40;100.00
73860;BME280;62197;51.632;13.700;2023-09-12T08:03:42;99934.03;;;22.56;100.00
73860;BME280;62197;51.632;13.700;2023-09-12T08:06:08;99933.88;;;22.70;100.00
73860;BME280;62197;51.632;13.700;2023-09-12T08:08:34;99939.56;;;22.99;100.00
73860;BME280;62197;51.632;13.700;2023-09-12T08:11:00;99925.44;;;23.16;100.00
73860;BME280;62197;51.632;13.700;2023-09-12T08:13:27;99929.03;;;23.34;100.00
73860;BME280;62197;51.632;13.700;2023-09-12T08:15:53;99931.34;;;23.32;100.00
73860;BME280;62197;51.632;13.700;2023-09-12T08:18:18;99923.50;;;23.46;100.00
73860;BME280;62197;51.632;13.700;2023-09-12T08:20:43;99928.00;;;23.67;100.00
73860;BME280;62197;51.632;13.700;2023-09-12T08:23:09;99935.16;;;23.85;100.00
73860;BME280;62197;51.632;13.700;2023-09-12T08:25:35;99938.91;;;23.98;100.00
73860;BME280;62197;51.632;13.700;2023-09-12T08:28:00;99935.69;;;24.08;100.00
73860;BME280;62197;51.632;13.700;2023-09-12T08:30:26;99934.66;;;24.12;100.00
73860;BME280;62197;51.632;13.700;2023-09-12T08:32:54;99940.28;;;24.33;100.00
73860;BME280;62197;51.632;13.700;2023-09-12T08:35:20;99927.41;;;24.44;100.00
73860;BME280;62197;51.632;13.700;2023-09-12T08:37:45;99932.06;;;24.61;100.00
73860;BME280;62197;51.632;13.700;2023-09-12T08:40:11;99925.84;;;24.67;100.00
73860;BME280;62197;51.632;13.700;2023-09-12T08:42:39;99923.81;;;24.88;100.00
73860;BME280;62197;51.632;13.700;2023-09-12T08:45:16;99917.50;;;25.03;100.00
73860;BME280;62197;51.632;13.700;2023-09-12T08:47:43;99922.34;;;25.15;100.00
73860;BME280;62197;51.632;13.700;2023-09-12T08:50:14;99915.28;;;25.21;100.00
73860;BME280;62197;51.632;13.700;2023-09-12T08:52:41;99920.94;;;25.33;100.00
73860;BME280;62197;51.632;13.700;2023-09-12T08:55:09;99924.59;;;25.46;100.00
73860;BME280;62197;51.632;13.700;2023-09-12T08:57:41;99923.66;;;25.42;100.00
73860;BME280;62197;51.632;13.700;2023-09-12T09:00:08;99920.38;;;25.64;100.00
73860;BME280;62197;51.632;13.700;2023-09-12T09:02:36;99914.44;;;25.81;100.00
73860;BME280;62197;51.632;13.700;2023-09-12T09:05:02;99908.53;;;25.98;100.00
73860;BME280;62197;51.632;13.700;2023-09-12T09:07:35;99911.81;;;26.00;100.00
73860;BME280;62197;51.632;13.700;2023-09-12T09:10:03;99915.94;;;26.03;100.00
73860;BME280;62197;51.632;13.700;2023-09-12T09:12:32;99919.84;;;26.10;100.00
73860;BME280;62197;51.632;13.700;2023-09-12T09:14:57;99917.19;;;26.29;100.00
73860;BME280;62197;51.632;13.700;2023-09-12T09:17:23;99920.16;;;26.48;100.00
73860;BME280;62197;51.632;13.700;2023-09-12T09:19:49;99916.31;;;26.68;100.00
73860;BME280;62197;51.632;13.700;2023-09-12T09:22:14;99925.47;;;26.77;100.00
73860;BME280;62197;51.632;13.700;2023-09-12T09:24:40;99930.53;;;26.84;100.00
73860;BME280;62197;51.632;13.700;2023-09-12T09:27:05;99926.34;;;26.94;100.00
73860;BME280;62197;51.632;13.700;2023-09-12T09:29:30;99912.25;;;26.97;100.00
73860;BME280;62197;51.632;13.700;2023-09-12T09:32:00;99911.81;;;27.11;100.00
73860;BME280;62197;51.632;13.700;2023-09-12T09:34:26;99914.66;;;27.11;100.00
73860;BME280;62197;51.632;13.700;2023-09-12T09:36:55;99916.19;;;27.24;100.00
73860;BME280;62197;51.632;13.700;2023-09-12T09:39:26;99911.69;;;27.35;100.00
73860;BME280;62197;51.632;13.700;2023-09-12T09:41:53;99912.75;;;27.46;97.29
73860;BME280;62197;51.632;13.700;2023-09-12T09:44:21;99913.19;;;27.63;98.19
73860;BME280;62197;51.632;13.700;2023-09-12T09:46:50;99912.44;;;27.66;94.90
73860;BME280;62197;51.632;13.700;2023-09-12T09:49:19;99909.97;;;27.65;91.09
73860;BME280;62197;51.632;13.700;2023-09-12T09:51:45;99910.59;;;27.74;91.66
73860;BME280;62197;51.632;13.700;2023-09-12T09:54:14;99912.22;;;27.91;95.85
73860;BME280;62197;51.632;13.700;2023-09-12T09:56:50;99910.78;;;27.97;91.58
73860;BME280;62197;51.632;13.700;2023-09-12T09:59:21;99908.91;;;28.04;91.27
73860;BME280;62197;51.632;13.700;2023-09-12T10:01:48;99902.28;;;28.16;93.19
73860;BME280;62197;51.632;13.700;2023-09-12T10:04:15;99908.78;;;28.35;86.56
73860;BME280;62197;51.632;13.700;2023-09-12T10:06:43;99913.56;;;28.50;85.90
73860;BME280;62197;51.632;13.700;2023-09-12T10:09:11;99909.25;;;28.57;88.50
73860;BME280;62197;51.632;13.700;2023-09-12T10:11:38;99909.69;;;28.59;83.31
73860;BME280;62197;51.632;13.700;2023-09-12T10:14:05;99903.69;;;28.64;81.27
73860;BME280;62197;51.632;13.700;2023-09-12T10:16:32;99905.16;;;28.77;83.22
73860;BME280;62197;51.632;13.700;2023-09-12T10:19:23;99901.44;;;28.92;81.98
73860;BME280;62197;51.632;13.700;2023-09-12T10:21:55;99899.59;;;29.03;81.53
73860;BME280;62197;51.632;13.700;2023-09-12T10:24:27;99890.84;;;28.92;82.82
73860;BME280;62197;51.632;13.700;2023-09-12T10:26:53;99891.19;;;29.10;78.75
73860;BME280;62197;51.632;13.700;2023-09-12T10:29:20;99892.34;;;29.28;76.17
73860;BME280;62197;51.632;13.700;2023-09-12T10:31:46;99891.56;;;29.31;76.16
73860;BME280;62197;51.632;13.700;2023-09-12T10:34:14;99884.88;;;29.42;72.62
73860;BME280;62197;51.632;13.700;2023-09-12T10:36:41;99892.88;;;29.60;69.83
73860;BME280;62197;51.632;13.700;2023-09-12T10:39:07;99888.88;;;29.64;71.71
73860;BME280;62197;51.632;13.700;2023-09-12T10:41:37;99890.88;;;29.86;65.20
73860;BME280;62197;51.632;13.700;2023-09-12T10:44:07;99882.34;;;29.64;72.50
73860;BME280;62197;51.632;13.700;2023-09-12T10:46:36;99884.25;;;30.35;64.69
73860;BME280;62197;51.632;13.700;2023-09-12T10:49:03;99885.03;;;31.01;66.12
73860;BME280;62197;51.632;13.700;2023-09-12T10:51:31;99890.78;;;31.49;57.62
73860;BME280;62197;51.632;13.700;2023-09-12T10:53:56;99883.06;;;31.49;50.19
73860;BME280;62197;51.632;13.700;2023-09-12T10:56:22;99879.44;;;32.17;48.91
73860;BME280;62197;51.632;13.700;2023-09-12T11:01:36;99892.88;;;33.59;45.64
73860;BME280;62197;51.632;13.700;2023-09-12T11:06:53;99888.78;;;33.70;43.61
73860;BME280;62197;51.632;13.700;2023-09-12T11:09:23;99883.06;;;33.53;42.99
73860;BME280;62197;51.632;13.700;2023-09-12T11:11:55;99890.03;;;32.13;46.16
73860;BME280;62197;51.632;13.700;2023-09-12T11:14:20;99876.97;;;31.54;47.73
73860;BME280;62197;51.632;13.700;2023-09-12T11:19:50;99880.19;;;31.09;51.60
73860;BME280;62197;51.632;13.700;2023-09-12T11:22:27;99883.47;;;31.51;51.24
73860;BME280;62197;51.632;13.700;2023-09-12T11:24:54;99882.75;;;32.30;51.31
73860;BME280;62197;51.632;13.700;2023-09-12T11:27:22;99879.00;;;33.47;45.15
73860;BME280;62197;51.632;13.700;2023-09-12T11:29:48;99875.34;;;34.82;42.05
73860;BME280;62197;51.632;13.700;2023-09-12T11:32:26;99875.66;;;33.91;40.92
73860;BME280;62197;51.632;13.700;2023-09-12T11:34:52;99872.38;;;33.92;41.01
73860;BME280;62197;51.632;13.700;2023-09-12T11:37:26;99846.28;;;33.44;41.98
73860;BME280;62197;51.632;13.700;2023-09-12T11:39:53;99859.31;;;33.98;43.13
73860;BME280;62197;51.632;13.700;2023-09-12T11:42:19;99848.56;;;34.27;38.25
73860;BME280;62197;51.632;13.700;2023-09-12T11:44:44;99856.72;;;34.35;41.53
73860;BME280;62197;51.632;13.700;2023-09-12T11:47:10;99851.16;;;33.76;39.43
73860;BME280;62197;51.632;13.700;2023-09-12T11:49:40;99856.06;;;33.79;42.23
73860;BME280;62197;51.632;13.700;2023-09-12T11:52:10;99843.81;;;33.32;42.89
73860;BME280;62197;51.632;13.700;2023-09-12T11:54:37;99856.03;;;33.93;40.38
73860;BME280;62197;51.632;13.700;2023-09-12T11:57:03;99845.28;;;34.35;41.01
73860;BME280;62197;51.632;13.700;2023-09-12T11:59:29;99855.28;;;33.67;39.57
73860;BME280;62197;51.632;13.700;2023-09-12T12:01:55;99851.84;;;34.29;40.07
73860;BME280;62197;51.632;13.700;2023-09-12T12:04:24;99852.31;;;35.00;38.65
73860;BME280;62197;51.632;13.700;2023-09-12T12:06:51;99854.25;;;34.41;40.98
73860;BME280;62197;51.632;13.700;2023-09-12T12:09:17;99851.69;;;34.64;38.55
73860;BME280;62197;51.632;13.700;2023-09-12T12:11:44;99857.22;;;34.09;39.82
73860;BME280;62197;51.632;13.700;2023-09-12T12:14:14;99856.00;;;34.03;40.54
73860;BME280;62197;51.632;13.700;2023-09-12T12:16:43;99851.94;;;33.94;40.43
73860;BME280;62197;51.632;13.700;2023-09-12T12:19:10;99849.09;;;34.01;40.36
73860;BME280;62197;51.632;13.700;2023-09-12T12:21:37;99851.09;;;34.11;40.38
73860;BME280;62197;51.632;13.700;2023-09-12T12:24:03;99847.75;;;35.06;38.36
73860;BME280;62197;51.632;13.700;2023-09-12T12:26:30;99850.69;;;36.28;37.05
73860;BME280;62197;51.632;13.700;2023-09-12T12:28:55;99845.41;;;36.87;35.35
73860;BME280;62197;51.632;13.700;2023-09-12T12:31:22;99843.91;;;37.29;34.27
73860;BME280;62197;51.632;13.700;2023-09-12T12:33:53;99843.63;;;35.99;36.63
73860;BME280;62197;51.632;13.700;2023-09-12T12:36:18;99844.41;;;36.03;36.16
73860;BME280;62197;51.632;13.700;2023-09-12T12:38:45;99839.28;;;35.84;36.49
73860;BME280;62197;51.632;13.700;2023-09-12T12:41:11;99829.38;;;34.96;36.68
73860;BME280;62197;51.632;13.700;2023-09-12T12:43:39;99833.88;;;35.49;35.89
73860;BME280;62197;51.632;13.700;2023-09-12T12:46:10;99827.34;;;34.97;39.24
73860;BME280;62197;51.632;13.700;2023-09-12T12:48:36;99829.28;;;35.62;39.25